createdAt,value
2023-02-19T00:01:22.076Z,97887.63
2023-02-19T00:04:25.497Z,97884.75
2023-02-19T00:07:28.767Z,97878.73
2023-02-19T00:10:32.047Z,97876.61
2023-02-19T00:13:44.167Z,97885.29
2023-02-19T00:16:49.525Z,97886.21
2023-02-19T00:19:52.926Z,97884.17
2023-02-19T00:22:56.214Z,97880.29
2023-02-19T00:26:17.612Z,97881.77
2023-02-19T00:29:22.790Z,97887.48
2023-02-19T00:32:26.774Z,97891.06
2023-02-19T00:35:30.120Z,97897.08
2023-02-19T00:38:37.209Z,97889.50
2023-02-19T00:41:40.534Z,97893.34
2023-02-19T00:44:43.908Z,97889.19
2023-02-19T00:47:48.680Z,97893.10
2023-02-19T00:50:51.968Z,97894.61
2023-02-19T00:53:56.216Z,97894.78
2023-02-19T00:57:00.718Z,97887.84
2023-02-19T01:00:05.070Z,97887.23
2023-02-19T01:03:08.458Z,97890.99
2023-02-19T01:06:15.045Z,97891.95
2023-02-19T01:09:18.261Z,97892.88
2023-02-19T01:12:21.627Z,97892.73
2023-02-19T01:15:25.334Z,97897.73
2023-02-19T01:18:28.568Z,97898.45
2023-02-19T01:21:32.143Z,97892.60
2023-02-19T01:24:35.687Z,97890.64
2023-02-19T01:27:38.824Z,97886.19
2023-02-19T01:30:42.103Z,97879.62
2023-02-19T01:33:47.031Z,97877.45
2023-02-19T01:36:50.300Z,97872.77
2023-02-19T01:39:53.687Z,97862.83
2023-02-19T01:42:57.009Z,97856.59
2023-02-19T01:46:00.859Z,97854.71
2023-02-19T01:49:21.543Z,97844.95
2023-02-19T01:52:32.740Z,97849.02
2023-02-19T01:55:36.353Z,97848.95
2023-02-19T01:58:40.393Z,97843.86
2023-02-19T02:01:43.813Z,97839.16
2023-02-19T02:04:47.499Z,97830.48
2023-02-19T02:08:10.779Z,97828.93
2023-02-19T02:11:14.272Z,97818.77
2023-02-19T02:14:19.725Z,97814.45
2023-02-19T02:17:36.744Z,97811.17
2023-02-19T02:20:52.207Z,97811.24
2023-02-19T02:24:14.050Z,97805.23
2023-02-19T02:27:27.585Z,97804.84
2023-02-19T02:30:48.888Z,97805.86
2023-02-19T02:34:07.291Z,97809.08
2023-02-19T02:37:12.276Z,97804.70
2023-02-19T02:40:17.915Z,97800.16
2023-02-19T02:43:21.392Z,97798.29
2023-02-19T02:46:30.424Z,97799.78
2023-02-19T02:49:55.673Z,97794.48
2023-02-19T02:53:26.922Z,97798.23
2023-02-19T02:56:31.662Z,97792.43
2023-02-19T02:59:39.427Z,97786.56
2023-02-19T03:02:44.018Z,97778.98
2023-02-19T03:05:52.777Z,97771.94
2023-02-19T03:09:19.357Z,97763.81
2023-02-19T03:12:42.508Z,97760.83
2023-02-19T03:16:10.250Z,97766.30
2023-02-19T03:19:19.206Z,97768.95
2023-02-19T03:22:27.708Z,97769.80
2023-02-19T03:25:52.494Z,97775.42
2023-02-19T03:29:22.628Z,97772.99
2023-02-19T03:32:34.529Z,97776.04
2023-02-19T03:35:44.925Z,97776.41
2023-02-19T03:38:59.514Z,97777.42
2023-02-19T03:42:18.062Z,97774.61
2023-02-19T03:45:32.101Z,97771.87
2023-02-19T03:48:38.348Z,97769.91
2023-02-19T03:51:50.553Z,97769.13
2023-02-19T03:55:02.845Z,97770.38
2023-02-19T03:58:35.319Z,97766.94
2023-02-19T04:01:43.427Z,97760.27
2023-02-19T04:05:07.518Z,97754.66
2023-02-19T04:08:16.151Z,97755.67
2023-02-19T04:11:24.610Z,97754.57
2023-02-19T04:14:34.904Z,97751.05
2023-02-19T04:17:47.824Z,97746.99
2023-02-19T04:20:51.644Z,97743.80
2023-02-19T04:23:58.580Z,97743.73
2023-02-19T04:27:02.788Z,97744.13
2023-02-19T04:30:08.537Z,97742.33
2023-02-19T04:33:11.773Z,97736.48
2023-02-19T04:36:14.922Z,97731.71
2023-02-19T04:39:18.155Z,97731.48
2023-02-19T04:42:21.344Z,97724.46
2023-02-19T04:45:24.562Z,97719.07
2023-02-19T04:48:28.296Z,97709.86
2023-02-19T04:51:31.480Z,97702.75
2023-02-19T04:54:34.807Z,97700.72
2023-02-19T04:57:38.025Z,97698.61
2023-02-19T05:00:41.370Z,97699.79
2023-02-19T05:03:44.851Z,97690.58
2023-02-19T05:06:48.095Z,97690.42
2023-02-19T05:09:51.323Z,97687.13
2023-02-19T05:12:57.803Z,97689.73
2023-02-19T05:16:07.422Z,97690.42
2023-02-19T05:19:13.656Z,97691.36
2023-02-19T05:22:17.191Z,97694.56
2023-02-19T05:25:20.445Z,97699.33
2023-02-19T05:28:28.846Z,97688.61
2023-02-19T05:31:33.891Z,97680.49
2023-02-19T05:34:37.323Z,97685.17
2023-02-19T05:37:40.491Z,97682.05
2023-02-19T05:40:44.809Z,97677.83
2023-02-19T05:43:49.340Z,97673.98
2023-02-19T05:46:52.539Z,97668.45
2023-02-19T05:49:55.838Z,97672.75
2023-02-19T05:53:05.713Z,97675.40
2023-02-19T05:56:30.876Z,97670.95
2023-02-19T05:59:34.061Z,97676.11
2023-02-19T06:02:37.934Z,97675.17
2023-02-19T06:05:41.234Z,97669.55
2023-02-19T06:08:44.840Z,97670.87
2023-02-19T06:11:48.049Z,97671.96
2023-02-19T06:14:51.542Z,97673.94
2023-02-19T06:17:55.007Z,97673.08
2023-02-19T06:21:05.909Z,97670.42
2023-02-19T06:24:10.002Z,97667.77
2023-02-19T06:27:13.283Z,97663.33
2023-02-19T06:30:16.631Z,97663.01
2023-02-19T06:33:19.839Z,97665.67
2023-02-19T06:36:23.851Z,97661.69
2023-02-19T06:39:27.846Z,97658.02
2023-02-19T06:42:33.880Z,97654.58
2023-02-19T06:45:37.189Z,97652.17
2023-02-19T06:48:41.657Z,97649.98
2023-02-19T06:51:44.855Z,97651.70
2023-02-19T06:54:48.041Z,97654.98
2023-02-19T06:57:51.225Z,97660.78
2023-02-19T07:00:54.764Z,97655.23
2023-02-19T07:03:58.364Z,97659.68
2023-02-19T07:07:01.562Z,97666.09
2023-02-19T07:10:05.132Z,97669.54
2023-02-19T07:13:08.311Z,97667.59
2023-02-19T07:16:13.314Z,97663.11
2023-02-19T07:19:16.853Z,97656.87
2023-02-19T07:22:20.110Z,97661.33
2023-02-19T07:25:23.318Z,97655.08
2023-02-19T07:28:26.622Z,97654.98
2023-02-19T07:31:30.053Z,97650.84
2023-02-19T07:34:33.326Z,97650.84
2023-02-19T07:37:36.575Z,97648.58
2023-02-19T07:40:39.806Z,97647.26
2023-02-19T07:43:43.221Z,97651.09
2023-02-19T07:46:46.476Z,97646.17
2023-02-19T07:49:49.662Z,97641.57
2023-02-19T07:52:52.831Z,97638.20
2023-02-19T07:56:06.927Z,97637.66
2023-02-19T07:59:10.785Z,97638.61
2023-02-19T08:02:37.372Z,97641.27
2023-02-19T08:05:42.289Z,97648.92
2023-02-19T08:08:45.559Z,97648.63
2023-02-19T08:12:07.388Z,97649.39
2023-02-19T08:15:10.603Z,97651.27
2023-02-19T08:18:16.516Z,97656.96
2023-02-19T08:21:20.700Z,97662.69
2023-02-19T08:24:24.438Z,97659.00
2023-02-19T08:27:27.732Z,97652.36
2023-02-19T08:30:32.386Z,97657.89
2023-02-19T08:33:36.759Z,97658.90
2023-02-19T08:36:40.267Z,97656.16
2023-02-19T08:39:43.597Z,97660.31
2023-02-19T08:42:46.924Z,97657.02
2023-02-19T08:45:54.614Z,97656.94
2023-02-19T08:48:58.350Z,97659.66
2023-02-19T08:52:01.907Z,97659.67
2023-02-19T08:55:06.286Z,97661.29
2023-02-19T08:58:11.620Z,97666.38
2023-02-19T09:01:18.837Z,97666.28
2023-02-19T09:04:22.463Z,97670.40
2023-02-19T09:07:26.020Z,97675.96
2023-02-19T09:10:29.262Z,97672.92
2023-02-19T09:13:32.688Z,97676.82
2023-02-19T09:16:37.101Z,97675.10
2023-02-19T09:19:40.334Z,97675.88
2023-02-19T09:22:43.571Z,97684.48
2023-02-19T09:25:47.143Z,97685.88
2023-02-19T09:28:50.722Z,97694.16
2023-02-19T09:32:01.040Z,97702.73
2023-02-19T09:36:05.867Z,97716.00
2023-02-19T09:39:10.491Z,97719.16
2023-02-19T09:42:24.804Z,97723.55
2023-02-19T09:45:28.168Z,97730.79
2023-02-19T09:48:32.268Z,97738.93
2023-02-19T09:51:38.009Z,97747.23
2023-02-19T09:54:41.951Z,97755.95
2023-02-19T09:57:46.692Z,97766.92
2023-02-19T10:00:51.152Z,97774.14
2023-02-19T10:03:54.930Z,97778.02
2023-02-19T10:07:03.520Z,97786.05
2023-02-19T10:10:29.067Z,97784.29
2023-02-19T10:13:37.750Z,97787.04
2023-02-19T10:16:43.879Z,97787.70
2023-02-19T10:19:47.159Z,97790.77
2023-02-19T10:23:04.188Z,97796.03
2023-02-19T10:26:07.397Z,97800.02
2023-02-19T10:29:11.271Z,97804.58
2023-02-19T10:32:24.048Z,97804.91
2023-02-19T10:35:28.011Z,97804.98
2023-02-19T10:38:40.661Z,97808.11
2023-02-19T10:41:44.411Z,97811.34
2023-02-19T10:44:53.868Z,97820.77
2023-02-19T10:47:57.805Z,97829.81
2023-02-19T10:51:08.643Z,97832.00
2023-02-19T10:54:19.231Z,97840.25
2023-02-19T10:57:34.036Z,97838.02
2023-02-19T11:00:38.398Z,97836.83
2023-02-19T11:03:42.148Z,97845.16
2023-02-19T11:06:46.960Z,97848.24
2023-02-19T11:09:53.782Z,97854.01
2023-02-19T11:13:01.334Z,97856.38
2023-02-19T11:16:05.499Z,97853.19
2023-02-19T11:19:44.460Z,97857.18
2023-02-19T11:22:49.368Z,97856.52
2023-02-19T11:25:54.429Z,97863.61
2023-02-19T11:28:59.969Z,97866.79
2023-02-19T11:32:25.708Z,97870.04
2023-02-19T11:35:29.973Z,97876.51
2023-02-19T11:38:33.438Z,97879.36
2023-02-19T11:41:47.639Z,97885.83
2023-02-19T11:45:26.489Z,97895.17
2023-02-19T11:48:38.740Z,97906.21
2023-02-19T11:52:26.061Z,97914.73
2023-02-19T11:56:16.843Z,97917.21
2023-02-19T11:59:31.509Z,97919.98
2023-02-19T12:02:46.112Z,97928.70
2023-02-19T12:06:11.126Z,97930.98
2023-02-19T12:09:24.313Z,97935.38
2023-02-19T12:12:42.536Z,97941.10
2023-02-19T12:16:00.922Z,97945.31
2023-02-19T12:19:08.273Z,97947.77
2023-02-19T12:22:22.266Z,97943.70
2023-02-19T12:25:36.255Z,97949.13
2023-02-19T12:28:45.271Z,97949.65
2023-02-19T12:32:00.717Z,97946.89
2023-02-19T12:35:15.836Z,97949.89
2023-02-19T12:38:33.691Z,97952.13
2023-02-19T12:42:06.300Z,97956.73
2023-02-19T12:45:24.851Z,97965.10
2023-02-19T12:48:39.818Z,97967.94
2023-02-19T12:51:49.777Z,97973.48
2023-02-19T12:54:56.354Z,97980.33
2023-02-19T12:58:04.531Z,97989.23
2023-02-19T13:01:18.910Z,97992.01
2023-02-19T13:04:25.563Z,97997.24
2023-02-19T13:07:39.408Z,98002.15
2023-02-19T13:10:56.847Z,98006.49
2023-02-19T13:14:26.424Z,98012.55
2023-02-19T13:17:42.776Z,98018.08
2023-02-19T13:20:48.823Z,98018.00
2023-02-19T13:23:58.520Z,98025.16
2023-02-19T13:27:23.956Z,98032.42
2023-02-19T13:30:39.656Z,98032.98
2023-02-19T13:34:05.918Z,98033.10
2023-02-19T13:37:11.508Z,98036.15
2023-02-19T13:40:35.616Z,98043.30
2023-02-19T13:43:39.171Z,98042.64
2023-02-19T13:46:45.456Z,98047.48
2023-02-19T13:49:49.579Z,98048.76
2023-02-19T13:52:55.070Z,98051.35
2023-02-19T13:55:58.269Z,98056.81
2023-02-19T13:59:25.594Z,98061.64
2023-02-19T14:02:35.505Z,98065.13
2023-02-19T14:06:04.404Z,98067.30
2023-02-19T14:09:36.258Z,98073.30
2023-02-19T14:12:39.583Z,98075.45
2023-02-19T14:15:49.421Z,98084.58
2023-02-19T14:18:52.896Z,98089.82
2023-02-19T14:21:56.129Z,98095.80
2023-02-19T14:25:00.653Z,98104.03
2023-02-19T14:28:06.946Z,98108.98
2023-02-19T14:31:19.650Z,98113.84
2023-02-19T14:34:26.944Z,98120.09
2023-02-19T14:37:30.354Z,98126.35
2023-02-19T14:40:44.327Z,98130.92
2023-02-19T14:43:50.925Z,98131.57
2023-02-19T14:47:06.534Z,98128.61
2023-02-19T14:50:29.519Z,98133.98
2023-02-19T14:53:38.981Z,98141.92
2023-02-19T14:56:46.860Z,98141.08
2023-02-19T14:59:55.806Z,98138.34
2023-02-19T15:02:59.874Z,98137.20
2023-02-19T15:06:11.556Z,98145.73
2023-02-19T15:09:16.551Z,98154.95
2023-02-19T15:12:25.645Z,98156.79
2023-02-19T15:15:32.697Z,98166.75
2023-02-19T15:18:38.039Z,98164.14
2023-02-19T15:21:46.726Z,98168.26
2023-02-19T15:24:50.057Z,98166.39
2023-02-19T15:27:53.316Z,98166.32
2023-02-19T15:30:59.698Z,98166.88
2023-02-19T15:34:02.987Z,98176.35
2023-02-19T15:37:11.190Z,98186.60
2023-02-19T15:40:15.484Z,98196.41
2023-02-19T15:43:26.946Z,98207.41
2023-02-19T15:46:31.020Z,98219.05
2023-02-19T15:49:54.854Z,98231.27
2023-02-19T15:53:12.736Z,98231.72
2023-02-19T15:56:29.485Z,98236.30
2023-02-19T15:59:36.785Z,98236.39
2023-02-19T16:02:40.770Z,98248.98
2023-02-19T16:05:44.222Z,98253.81
2023-02-19T16:09:04.293Z,98260.54
2023-02-19T16:12:23.147Z,98259.31
2023-02-19T16:15:28.726Z,98267.83
2023-02-19T16:18:32.469Z,98275.73
2023-02-19T16:21:36.189Z,98275.88
2023-02-19T16:24:45.454Z,98277.52
2023-02-19T16:27:48.946Z,98279.52
2023-02-19T16:30:58.324Z,98287.54
2023-02-19T16:34:17.787Z,98296.36
2023-02-19T16:37:41.889Z,98302.86
2023-02-19T16:40:48.991Z,98317.80
2023-02-19T16:43:52.176Z,98327.70
2023-02-19T16:47:01.667Z,98337.02
2023-02-19T16:50:41.746Z,98345.84
2023-02-19T16:54:01.772Z,98349.72
2023-02-19T16:57:46.020Z,98354.20
2023-02-19T17:15:29.673Z,98371.49
2023-02-19T17:18:39.296Z,98380.98
2023-02-19T17:21:43.124Z,98384.95
2023-02-19T17:24:47.475Z,98387.86
2023-02-19T17:27:50.671Z,98391.70
2023-02-19T17:30:54.245Z,98398.98
2023-02-19T17:33:57.546Z,98404.36
2023-02-19T17:37:00.819Z,98410.35
2023-02-19T17:40:04.301Z,98423.33
2023-02-19T17:43:08.092Z,98429.94
2023-02-19T17:46:15.972Z,98431.59
2023-02-19T17:49:19.740Z,98428.31
2023-02-19T17:52:23.031Z,98431.63
2023-02-19T17:55:29.668Z,98436.42
2023-02-19T17:58:32.948Z,98439.61
2023-02-19T18:01:36.358Z,98442.02
2023-02-19T18:04:41.182Z,98450.95
2023-02-19T18:07:45.826Z,98457.52
2023-02-19T18:10:49.082Z,98469.89
2023-02-19T18:13:52.675Z,98472.16
2023-02-19T18:16:56.170Z,98477.16
2023-02-19T18:20:44.989Z,98483.00
2023-02-19T18:23:48.293Z,98485.17
2023-02-19T18:26:51.484Z,98486.46
2023-02-19T18:29:56.380Z,98482.77
2023-02-19T18:32:59.569Z,98477.95
2023-02-19T18:36:03.751Z,98476.88
2023-02-19T18:39:07.136Z,98482.61
2023-02-19T18:42:12.589Z,98490.17
2023-02-19T18:45:17.066Z,98495.63
2023-02-19T18:48:21.480Z,98502.04
2023-02-19T18:51:35.651Z,98509.17
2023-02-19T18:54:39.690Z,98515.62
2023-02-19T18:57:44.131Z,98514.13
2023-02-19T19:00:47.331Z,98517.52
2023-02-19T19:03:50.658Z,98518.64
2023-02-19T19:06:53.934Z,98518.90
2023-02-19T19:10:08.100Z,98528.33
2023-02-19T19:13:11.454Z,98527.19
2023-02-19T19:16:26.690Z,98523.19
2023-02-19T19:19:29.952Z,98537.23
2023-02-19T19:22:50.430Z,98534.70
2023-02-19T19:26:07.652Z,98539.20
2023-02-19T19:29:12.148Z,98543.01
2023-02-19T19:32:15.770Z,98540.66
2023-02-19T19:35:20.145Z,98547.60
2023-02-19T19:38:23.745Z,98551.30
2023-02-19T19:41:26.971Z,98561.81
2023-02-19T19:44:30.269Z,98551.11
2023-02-19T19:47:33.557Z,98553.77
2023-02-19T19:50:36.755Z,98555.70
2023-02-19T19:53:40.143Z,98557.39
2023-02-19T19:56:45.850Z,98558.92
2023-02-19T19:59:51.281Z,98561.44
2023-02-19T20:02:54.587Z,98560.58
2023-02-19T20:05:58.165Z,98563.20
2023-02-19T20:09:01.513Z,98559.21
2023-02-19T20:12:05.257Z,98557.92
2023-02-19T20:15:09.736Z,98559.48
2023-02-19T20:18:13.121Z,98567.44
2023-02-19T20:21:16.363Z,98571.48
2023-02-19T20:24:26.039Z,98571.69
2023-02-19T20:27:29.398Z,98579.09
2023-02-19T20:36:58.759Z,98588.02
2023-02-19T20:43:31.499Z,98594.77
2023-02-19T20:47:18.452Z,98591.95
2023-02-19T20:55:35.844Z,98611.10
2023-02-19T20:59:19.915Z,98610.84
2023-02-19T21:08:22.458Z,98632.79
2023-02-19T21:11:29.571Z,98635.01
2023-02-19T21:19:10.442Z,98645.97
2023-02-19T21:22:35.460Z,98646.65
2023-02-19T21:29:59.415Z,98658.39
2023-02-19T21:39:03.123Z,98665.71
2023-02-19T21:42:06.756Z,98666.83
2023-02-19T21:45:10.327Z,98670.96
2023-02-19T21:48:13.976Z,98668.09
2023-02-19T21:51:19.141Z,98670.07
2023-02-19T21:54:24.954Z,98676.29
2023-02-19T21:57:28.342Z,98681.86
2023-02-19T22:00:31.996Z,98685.79
2023-02-19T22:03:35.297Z,98688.79
2023-02-19T22:06:41.514Z,98687.55
2023-02-19T22:09:44.800Z,98681.60
2023-02-19T22:12:48.150Z,98686.36
2023-02-19T22:15:51.394Z,98694.48
2023-02-19T22:18:59.482Z,98698.29
2023-02-19T22:22:03.152Z,98703.81
2023-02-19T22:25:06.950Z,98702.30
2023-02-19T22:28:10.425Z,98706.44
2023-02-19T22:31:15.788Z,98703.88
2023-02-19T22:34:19.142Z,98707.48
2023-02-19T22:37:22.517Z,98710.13
2023-02-19T22:40:25.834Z,98713.45
2023-02-19T22:43:29.112Z,98712.05
2023-02-19T22:46:32.360Z,98712.48
2023-02-19T22:49:38.710Z,98713.73
2023-02-19T22:52:42.233Z,98716.69
2023-02-19T22:55:45.603Z,98717.30
2023-02-19T22:58:48.963Z,98722.52
2023-02-19T23:01:53.226Z,98726.84
2023-02-19T23:04:56.652Z,98734.94
2023-02-19T23:08:00.128Z,98740.27
2023-02-19T23:11:03.385Z,98740.68
2023-02-19T23:14:08.023Z,98741.27
2023-02-19T23:17:11.501Z,98739.20
2023-02-19T23:20:14.820Z,98749.01
2023-02-19T23:23:18.157Z,98746.66
2023-02-19T23:26:21.509Z,98749.70
2023-02-19T23:29:27.119Z,98750.08
2023-02-19T23:32:30.397Z,98750.65
2023-02-19T23:35:33.679Z,98755.12
2023-02-19T23:38:37.177Z,98748.16
2023-02-19T23:41:46.452Z,98752.35
2023-02-19T23:44:49.786Z,98747.77
2023-02-19T23:47:53.155Z,98745.02
2023-02-19T23:50:56.421Z,98748.34
2023-02-19T23:53:59.881Z,98741.27
2023-02-19T23:57:03.235Z,98737.62
